Time,TemperatureF,DewpointF,PressureIn,WindDirection,WindDirectionDegrees,WindSpeedMPH,WindSpeedGustMPH,Humidity,HourlyPrecipIn,Conditions,Clouds,dailyrainin,SoftwareType,DateUTC
2013-02-01 00:04:00,32.1,32.0,0.00,North,0,0.0,-999.0,100,0.00,,,-99.99,,2013-02-01 09:04:00,
2013-02-01 00:09:00,31.8,31.7,0.00,North,0,0.0,-999.0,100,0.00,,,-99.99,,2013-02-01 09:09:00,
2013-02-01 00:14:00,31.8,31.8,0.00,North,0,0.0,-999.0,100,0.00,,,-99.99,,2013-02-01 09:14:00,
2013-02-01 00:19:00,31.7,31.7,0.00,North,0,0.0,-999.0,100,0.00,,,-99.99,,2013-02-01 09:19:00,
2013-02-01 00:24:00,31.7,31.7,0.00,North,0,0.0,-999.0,100,0.00,,,-99.99,,2013-02-01 09:24:00,
2013-02-01 00:29:00,31.8,31.7,0.00,North,0,0.0,-999.0,100,0.00,,,-99.99,,2013-02-01 09:29:00,
2013-02-01 00:34:00,31.8,31.8,0.00,North,0,0.0,-999.0,100,0.00,,,-99.99,,2013-02-01 09:34:00,
2013-02-01 00:39:00,31.8,31.8,0.00,North,0,0.0,-999.0,100,0.00,,,-99.99,,2013-02-01 09:39:00,
2013-02-01 00:44:00,31.6,31.5,0.00,North,0,0.0,-999.0,100,0.00,,,-99.99,,2013-02-01 09:44:00,
2013-02-01 00:49:00,31.8,31.7,0.00,North,0,0.0,-999.0,100,0.00,,,-99.99,,2013-02-01 09:49:00,
2013-02-01 00:54:00,31.6,31.5,0.00,North,0,0.0,-999.0,100,0.00,,,-99.99,,2013-02-01 09:54:00,
2013-02-01 00:59:00,31.5,31.5,0.00,North,0,0.0,-999.0,100,0.00,,,-99.99,,2013-02-01 09:59:00,
2013-02-01 01:04:00,31.7,31.7,0.00,North,0,0.0,-999.0,100,0.00,,,-99.99,,2013-02-01 10:04:00,
2013-02-01 01:10:00,31.6,31.5,0.00,North,0,0.0,-999.0,100,0.00,,,-99.99,,2013-02-01 10:10:00,
2013-02-01 01:15:00,31.6,31.6,0.00,North,0,0.0,-999.0,100,0.00,,,-99.99,,2013-02-01 10:15:00,
2013-02-01 01:20:00,31.5,31.5,0.00,North,0,0.0,-999.0,100,0.00,,,-99.99,,2013-02-01 10:20:00,
2013-02-01 01:25:00,31.8,31.8,0.00,North,0,0.0,-999.0,100,0.00,,,-99.99,,2013-02-01 10:25:00,
2013-02-01 01:30:00,32.1,32.0,0.00,North,0,0.0,-999.0,100,0.00,,,-99.99,,2013-02-01 10:30:00,
2013-02-01 01:35:00,32.0,31.9,0.00,North,0,0.0,-999.0,100,0.00,,,-99.99,,2013-02-01 10:35:00,
2013-02-01 01:40:00,32.1,32.0,0.00,North,0,0.0,-999.0,100,0.00,,,-99.99,,2013-02-01 10:40:00,
2013-02-01 01:45:00,32.1,32.0,0.00,North,0,0.0,-999.0,100,0.00,,,-99.99,,2013-02-01 10:45:00,
2013-02-01 01:51:00,32.1,32.0,0.00,North,0,0.0,-999.0,100,0.00,,,-99.99,,2013-02-01 10:51:00,
2013-02-01 01:56:00,32.1,32.0,0.00,North,0,0.0,-999.0,100,0.00,,,-99.99,,2013-02-01 10:56:00,
2013-02-01 02:01:00,32.0,31.9,0.00,North,0,0.0,-999.0,100,0.00,,,-99.99,,2013-02-01 11:01:00,
2013-02-01 02:08:00,32.0,32.0,0.00,North,0,0.0,-999.0,100,0.00,,,-99.99,,2013-02-01 11:08:00,
2013-02-01 02:13:00,32.0,32.0,0.00,North,0,0.0,-999.0,100,0.00,,,-99.99,,2013-02-01 11:13:00,
2013-02-01 02:18:00,32.0,32.0,0.00,North,0,0.0,-999.0,100,0.00,,,-99.99,,2013-02-01 11:18:00,
2013-02-01 02:23:00,32.0,31.9,0.00,North,0,0.0,-999.0,100,0.00,,,-99.99,,2013-02-01 11:23:00,
2013-02-01 02:28:00,32.0,32.0,0.00,North,0,0.0,-999.0,100,0.00,,,-99.99,,2013-02-01 11:28:00,
2013-02-01 02:33:00,32.0,32.0,0.00,North,0,0.0,-999.0,100,0.00,,,-99.99,,2013-02-01 11:33:00,
2013-02-01 02:38:00,32.0,32.0,0.00,North,0,0.0,-999.0,100,0.00,,,-99.99,,2013-02-01 11:38:00,
2013-02-01 02:43:00,32.0,32.0,0.00,North,0,0.0,-999.0,100,0.00,,,-99.99,,2013-02-01 11:43:00,
2013-02-01 02:48:00,32.0,32.0,0.00,North,0,0.0,-999.0,100,0.00,,,-99.99,,2013-02-01 11:48:00,
2013-02-01 02:53:00,32.1,32.0,0.00,North,0,0.0,-999.0,100,0.00,,,-99.99,,2013-02-01 11:53:00,
2013-02-01 02:58:00,32.1,32.0,0.00,North,0,0.0,-999.0,100,0.00,,,-99.99,,2013-02-01 11:58:00,
2013-02-01 03:03:00,32.0,31.9,0.00,North,0,0.0,-999.0,100,0.00,,,-99.99,,2013-02-01 12:03:00,
2013-02-01 03:08:00,32.0,31.9,0.00,North,0,0.0,-999.0,100,0.00,,,-99.99,,2013-02-01 12:08:00,
2013-02-01 03:13:00,32.1,32.0,0.00,North,0,0.0,-999.0,100,0.00,,,-99.99,,2013-02-01 12:13:00,
2013-02-01 03:18:00,32.0,32.0,0.00,North,0,0.0,-999.0,100,0.00,,,-99.99,,2013-02-01 12:18:00,
2013-02-01 03:23:00,32.2,32.1,0.00,North,0,0.0,-999.0,100,0.00,,,-99.99,,2013-02-01 12:23:00,
2013-02-01 03:28:00,32.1,32.0,0.00,North,0,0.0,-999.0,100,0.00,,,-99.99,,2013-02-01 12:28:00,
2013-02-01 03:33:00,32.3,32.2,0.00,North,0,0.0,-999.0,100,0.00,,,-99.99,,2013-02-01 12:33:00,
2013-02-01 03:38:00,32.2,32.2,0.00,North,0,0.0,-999.0,100,0.00,,,-99.99,,2013-02-01 12:38:00,
2013-02-01 03:43:00,32.2,32.2,0.00,North,0,0.0,-999.0,100,0.00,,,-99.99,,2013-02-01 12:43:00,
2013-02-01 03:48:00,32.3,32.3,0.00,North,0,0.0,-999.0,100,0.00,,,-99.99,,2013-02-01 12:48:00,
2013-02-01 03:53:00,32.3,32.2,0.00,North,0,0.0,-999.0,100,0.00,,,-99.99,,2013-02-01 12:53:00,
2013-02-01 03:58:00,32.2,32.2,0.00,North,0,0.0,-999.0,100,0.00,,,-99.99,,2013-02-01 12:58:00,
2013-02-01 04:03:00,32.3,32.2,0.00,North,0,0.0,-999.0,100,0.00,,,-99.99,,2013-02-01 13:03:00,
2013-02-01 04:08:00,32.2,32.2,0.00,North,0,0.0,-999.0,100,0.00,,,-99.99,,2013-02-01 13:08:00,
2013-02-01 04:13:00,32.2,32.1,0.00,North,0,0.0,-999.0,100,0.00,,,-99.99,,2013-02-01 13:13:00,
2013-02-01 04:18:00,32.3,32.3,0.00,North,0,0.0,-999.0,100,0.00,,,-99.99,,2013-02-01 13:18:00,
2013-02-01 04:23:00,32.5,32.4,0.00,North,0,0.0,-999.0,100,0.00,,,-99.99,,2013-02-01 13:23:00,
2013-02-01 04:28:00,32.5,32.4,0.00,North,0,0.0,-999.0,100,0.00,,,-99.99,,2013-02-01 13:28:00,
2013-02-01 04:33:00,32.4,32.4,0.00,North,0,0.0,-999.0,100,0.00,,,-99.99,,2013-02-01 13:33:00,
2013-02-01 04:38:00,32.5,32.5,0.00,North,0,0.0,-999.0,100,0.00,,,-99.99,,2013-02-01 13:38:00,
2013-02-01 04:43:00,32.6,32.5,0.00,North,0,0.0,-999.0,100,0.00,,,-99.99,,2013-02-01 13:43:00,
2013-02-01 04:48:00,32.6,32.5,0.00,North,0,0.0,-999.0,100,0.00,,,-99.99,,2013-02-01 13:48:00,
2013-02-01 04:53:00,32.6,32.6,0.00,North,0,0.0,-999.0,100,0.00,,,-99.99,,2013-02-01 13:53:00,
2013-02-01 04:58:00,32.8,32.8,0.00,North,0,0.0,-999.0,100,0.00,,,-99.99,,2013-02-01 13:58:00,
2013-02-01 05:03:00,33.0,33.0,0.00,North,0,0.0,-999.0,100,0.00,,,-99.99,,2013-02-01 14:03:00,
2013-02-01 05:08:00,33.0,32.9,0.00,North,0,0.0,-999.0,100,0.00,,,-99.99,,2013-02-01 14:08:00,
2013-02-01 05:13:00,33.0,32.9,0.00,North,0,0.0,-999.0,100,0.00,,,-99.99,,2013-02-01 14:13:00,
2013-02-01 05:18:00,32.9,32.8,0.00,North,0,0.0,-999.0,100,0.00,,,-99.99,,2013-02-01 14:18:00,
2013-02-01 05:23:00,32.8,32.8,0.00,North,0,0.0,-999.0,100,0.00,,,-99.99,,2013-02-01 14:23:00,
2013-02-01 05:28:00,33.0,32.9,0.00,North,0,0.0,-999.0,100,0.00,,,-99.99,,2013-02-01 14:28:00,
2013-02-01 05:34:00,33.0,32.9,0.00,North,0,0.0,-999.0,100,0.00,,,-99.99,,2013-02-01 14:34:00,
2013-02-01 05:39:00,32.9,32.8,0.00,North,0,0.0,-999.0,100,0.00,,,-99.99,,2013-02-01 14:39:00,
2013-02-01 05:44:00,32.9,32.8,0.00,North,0,0.0,-999.0,100,0.00,,,-99.99,,2013-02-01 14:44:00,
2013-02-01 05:49:00,32.8,32.7,0.00,North,1,0.0,-999.0,100,0.00,,,-99.99,,2013-02-01 14:49:00,
2013-02-01 05:54:00,32.9,32.8,0.00,North,0,0.0,-999.0,100,0.00,,,-99.99,,2013-02-01 14:54:00,
2013-02-01 05:59:00,32.7,32.7,0.00,North,0,0.0,-999.0,100,0.00,,,-99.99,,2013-02-01 14:59:00,
2013-02-01 06:04:00,32.6,32.5,0.00,North,0,0.0,-999.0,100,0.00,,,-99.99,,2013-02-01 15:04:00,
2013-02-01 06:09:00,32.4,32.4,0.00,North,0,0.0,-999.0,100,0.00,,,-99.99,,2013-02-01 15:09:00,
2013-02-01 06:15:00,32.6,32.5,0.00,North,0,0.0,-999.0,100,0.00,,,-99.99,,2013-02-01 15:15:00,
2013-02-01 06:20:00,32.5,32.5,0.00,North,0,0.0,-999.0,100,0.00,,,-99.99,,2013-02-01 15:20:00,
2013-02-01 06:25:00,32.7,32.7,0.00,North,0,0.0,-999.0,100,0.00,,,-99.99,,2013-02-01 15:25:00,
2013-02-01 06:30:00,32.8,32.7,0.00,North,1,0.0,-999.0,100,0.00,,,-99.99,,2013-02-01 15:30:00,
2013-02-01 06:35:00,33.2,33.2,0.00,North,1,0.0,-999.0,100,0.00,,,-99.99,,2013-02-01 15:35:00,
2013-02-01 06:40:00,33.2,33.2,0.00,North,0,0.0,-999.0,100,0.00,,,-99.99,,2013-02-01 15:40:00,
2013-02-01 06:45:00,33.4,33.3,0.00,North,2,0.0,-999.0,100,0.00,,,-99.99,,2013-02-01 15:45:00,
2013-02-01 06:51:00,33.5,33.5,0.00,North,0,0.0,-999.0,100,0.00,,,-99.99,,2013-02-01 15:51:00,
2013-02-01 06:56:00,33.6,33.6,0.00,North,0,0.0,-999.0,100,0.00,,,-99.99,,2013-02-01 15:56:00,
2013-02-01 07:01:00,34.2,34.1,0.00,North,0,0.0,-999.0,100,0.00,,,-99.99,,2013-02-01 16:01:00,
2013-02-01 07:06:00,34.2,34.2,0.00,North,0,0.0,-999.0,100,0.00,,,-99.99,,2013-02-01 16:06:00,
2013-02-01 07:13:00,34.3,34.3,0.00,North,0,0.0,-999.0,100,0.00,,,-99.99,,2013-02-01 16:13:00,
2013-02-01 07:19:00,34.2,34.2,0.00,North,0,0.0,-999.0,100,0.00,,,-99.99,,2013-02-01 16:19:00,
2013-02-01 07:24:00,34.5,34.4,0.00,North,0,0.0,-999.0,100,0.00,,,-99.99,,2013-02-01 16:24:00,
2013-02-01 07:29:00,34.5,34.5,0.00,North,0,0.0,-999.0,100,0.00,,,-99.99,,2013-02-01 16:29:00,
2013-02-01 07:34:00,34.4,34.4,0.00,North,0,0.0,-999.0,100,0.00,,,-99.99,,2013-02-01 16:34:00,
2013-02-01 07:39:00,34.2,34.2,0.00,North,0,0.0,-999.0,100,0.00,,,-99.99,,2013-02-01 16:39:00,
2013-02-01 07:44:00,34.3,34.2,0.00,North,0,0.0,-999.0,100,0.00,,,-99.99,,2013-02-01 16:44:00,
2013-02-01 07:49:00,34.5,34.4,0.00,North,0,0.0,-999.0,100,0.00,,,-99.99,,2013-02-01 16:49:00,
2013-02-01 07:54:00,34.5,34.5,0.00,North,0,0.0,-999.0,100,0.00,,,-99.99,,2013-02-01 16:54:00,
2013-02-01 07:59:00,34.8,34.7,0.00,North,0,0.0,-999.0,100,0.00,,,-99.99,,2013-02-01 16:59:00,
2013-02-01 08:04:00,34.7,34.7,0.00,North,0,0.0,-999.0,100,0.00,,,-99.99,,2013-02-01 17:04:00,
2013-02-01 08:11:00,34.8,34.7,0.00,North,0,0.0,-999.0,100,0.00,,,-99.99,,2013-02-01 17:11:00,
2013-02-01 08:16:00,34.8,34.8,0.00,North,0,0.0,-999.0,100,0.00,,,-99.99,,2013-02-01 17:16:00,
2013-02-01 08:21:00,35.0,35.0,0.00,North,0,0.0,-999.0,100,0.00,,,-99.99,,2013-02-01 17:21:00,
2013-02-01 08:26:00,35.1,35.0,0.00,North,0,0.0,-999.0,100,0.00,,,-99.99,,2013-02-01 17:26:00,
2013-02-01 08:31:00,35.1,35.0,0.00,North,1,0.0,-999.0,100,0.00,,,-99.99,,2013-02-01 17:31:00,
2013-02-01 08:36:00,35.1,35.0,0.00,North,2,0.0,-999.0,100,0.00,,,-99.99,,2013-02-01 17:36:00,
2013-02-01 08:41:00,35.3,35.3,0.00,North,2,0.0,-999.0,100,0.00,,,-99.99,,2013-02-01 17:41:00,
2013-02-01 08:46:00,35.3,35.3,0.00,North,1,0.0,-999.0,100,0.00,,,-99.99,,2013-02-01 17:46:00,
2013-02-01 08:51:00,35.4,35.3,0.00,North,1,0.0,-999.0,100,0.00,,,-99.99,,2013-02-01 17:51:00,
2013-02-01 08:56:00,35.4,35.3,0.00,North,2,0.0,-999.0,100,0.00,,,-99.99,,2013-02-01 17:56:00,
2013-02-01 09:01:00,35.4,35.3,0.00,North,2,0.0,-999.0,100,0.00,,,-99.99,,2013-02-01 18:01:00,
2013-02-01 09:06:00,35.4,35.4,0.00,North,2,0.0,-999.0,100,0.00,,,-99.99,,2013-02-01 18:06:00,
2013-02-01 09:11:00,35.5,35.4,0.00,North,2,0.0,-999.0,100,0.00,,,-99.99,,2013-02-01 18:11:00,
2013-02-01 09:16:00,35.6,35.6,0.00,North,2,0.0,-999.0,100,0.00,,,-99.99,,2013-02-01 18:16:00,
2013-02-01 09:21:00,35.7,35.7,0.00,North,0,0.0,-999.0,100,0.00,,,-99.99,,2013-02-01 18:21:00,
2013-02-01 09:26:00,35.5,35.4,0.00,North,1,0.0,-999.0,100,0.00,,,-99.99,,2013-02-01 18:26:00,
2013-02-01 09:31:00,35.5,35.5,0.00,North,1,0.0,-999.0,100,0.00,,,-99.99,,2013-02-01 18:31:00,
2013-02-01 09:36:00,35.5,35.5,0.00,North,2,0.0,-999.0,100,0.00,,,-99.99,,2013-02-01 18:36:00,
2013-02-01 09:41:00,35.5,35.4,0.00,North,1,0.0,-999.0,100,0.00,,,-99.99,,2013-02-01 18:41:00,
2013-02-01 09:46:00,35.7,35.6,0.00,North,1,0.0,-999.0,100,0.00,,,-99.99,,2013-02-01 18:46:00,
2013-02-01 09:51:00,35.8,35.8,0.00,North,0,0.0,-999.0,100,0.00,,,-99.99,,2013-02-01 18:51:00,
2013-02-01 09:56:00,35.6,35.6,0.00,North,2,0.0,-999.0,100,0.00,,,-99.99,,2013-02-01 18:56:00,
2013-02-01 10:01:00,35.8,35.8,0.00,North,2,0.0,-999.0,100,0.00,,,-99.99,,2013-02-01 19:01:00,
2013-02-01 10:06:00,35.5,35.5,0.00,North,2,0.0,-999.0,100,0.00,,,-99.99,,2013-02-01 19:06:00,
2013-02-01 10:11:00,35.6,35.6,0.00,North,2,0.0,-999.0,100,0.00,,,-99.99,,2013-02-01 19:11:00,
2013-02-01 10:16:00,35.7,35.6,0.00,North,3,0.0,-999.0,100,0.00,,,-99.99,,2013-02-01 19:16:00,
2013-02-01 10:21:00,35.7,35.6,0.00,North,3,0.0,-999.0,100,0.00,,,-99.99,,2013-02-01 19:21:00,
2013-02-01 10:26:00,35.7,35.6,0.00,North,4,0.0,-999.0,100,0.00,,,-99.99,,2013-02-01 19:26:00,
2013-02-01 10:31:00,35.6,35.6,0.00,North,3,0.0,-999.0,100,0.00,,,-99.99,,2013-02-01 19:31:00,
2013-02-01 10:36:00,35.7,35.6,0.00,North,4,0.0,-999.0,100,0.00,,,-99.99,,2013-02-01 19:36:00,
2013-02-01 10:41:00,35.7,35.7,0.00,North,3,0.0,-999.0,100,0.00,,,-99.99,,2013-02-01 19:41:00,
2013-02-01 10:46:00,35.7,35.6,0.00,North,2,0.0,-999.0,100,0.00,,,-99.99,,2013-02-01 19:46:00,
2013-02-01 10:51:00,35.7,35.6,0.00,North,3,0.0,-999.0,100,0.00,,,-99.99,,2013-02-01 19:51:00,
2013-02-01 10:56:00,35.7,35.6,0.00,North,3,0.0,-999.0,100,0.00,,,-99.99,,2013-02-01 19:56:00,
2013-02-01 11:01:00,35.8,35.8,0.00,North,2,0.0,-999.0,100,0.00,,,-99.99,,2013-02-01 20:01:00,
2013-02-01 11:06:00,35.8,35.8,0.00,North,1,0.0,-999.0,100,0.00,,,-99.99,,2013-02-01 20:06:00,
2013-02-01 11:11:00,35.7,35.6,0.00,North,2,0.0,-999.0,100,0.00,,,-99.99,,2013-02-01 20:11:00,
2013-02-01 11:16:00,35.7,35.7,0.00,North,3,0.0,-999.0,100,0.00,,,-99.99,,2013-02-01 20:16:00,
2013-02-01 11:21:00,35.7,35.7,0.00,North,1,0.0,-999.0,100,0.00,,,-99.99,,2013-02-01 20:21:00,
2013-02-01 11:26:00,35.7,35.6,0.00,North,1,0.0,-999.0,100,0.00,,,-99.99,,2013-02-01 20:26:00,
2013-02-01 11:31:00,35.7,35.7,0.00,North,0,0.0,-999.0,100,0.00,,,-99.99,,2013-02-01 20:31:00,
2013-02-01 11:36:00,35.6,35.6,0.00,North,0,0.0,-999.0,100,0.00,,,-99.99,,2013-02-01 20:36:00,
2013-02-01 11:41:00,35.5,35.5,0.00,North,0,0.0,-999.0,100,0.00,,,-99.99,,2013-02-01 20:41:00,
2013-02-01 11:46:00,35.7,35.6,0.00,North,0,0.0,-999.0,100,0.00,,,-99.99,,2013-02-01 20:46:00,
2013-02-01 11:51:00,35.8,35.7,0.00,North,0,0.0,-999.0,100,0.00,,,-99.99,,2013-02-01 20:51:00,
2013-02-01 11:56:00,35.7,35.7,0.00,North,0,0.0,-999.0,100,0.00,,,-99.99,,2013-02-01 20:56:00,
2013-02-01 12:02:00,35.7,35.6,0.00,North,0,0.0,-999.0,100,0.00,,,-99.99,,2013-02-01 21:02:00,
2013-02-01 12:07:00,35.7,35.7,0.00,North,2,0.0,-999.0,100,0.00,,,-99.99,,2013-02-01 21:07:00,
2013-02-01 12:12:00,35.7,35.7,0.00,North,1,0.0,-999.0,100,0.00,,,-99.99,,2013-02-01 21:12:00,
2013-02-01 12:17:00,35.8,35.7,0.00,North,1,0.0,-999.0,100,0.00,,,-99.99,,2013-02-01 21:17:00,
2013-02-01 12:22:00,35.8,35.8,0.00,North,1,0.0,-999.0,100,0.00,,,-99.99,,2013-02-01 21:22:00,
2013-02-01 12:27:00,35.8,35.7,0.00,North,1,0.0,-999.0,100,0.00,,,-99.99,,2013-02-01 21:27:00,
2013-02-01 12:32:00,35.7,35.7,0.00,North,1,0.0,-999.0,100,0.00,,,-99.99,,2013-02-01 21:32:00,
2013-02-01 12:37:00,35.8,35.7,0.00,North,1,0.0,-999.0,100,0.00,,,-99.99,,2013-02-01 21:37:00,
2013-02-01 12:42:00,35.8,35.7,0.00,North,1,0.0,-999.0,100,0.00,,,-99.99,,2013-02-01 21:42:00,
2013-02-01 12:47:00,35.8,35.7,0.00,North,1,0.0,-999.0,100,0.00,,,-99.99,,2013-02-01 21:47:00,
2013-02-01 12:52:00,35.7,35.6,0.00,North,1,0.0,-999.0,100,0.00,,,-99.99,,2013-02-01 21:52:00,
2013-02-01 12:57:00,35.8,35.7,0.00,North,1,0.0,-999.0,100,0.00,,,-99.99,,2013-02-01 21:57:00,
2013-02-01 13:02:00,35.9,35.9,0.00,North,0,0.0,-999.0,100,0.00,,,-99.99,,2013-02-01 22:02:00,
2013-02-01 13:07:00,35.8,35.7,0.00,North,0,0.0,-999.0,100,0.00,,,-99.99,,2013-02-01 22:07:00,
2013-02-01 13:12:00,35.9,35.9,0.00,North,0,0.0,-999.0,100,0.00,,,-99.99,,2013-02-01 22:12:00,
2013-02-01 13:17:00,35.7,35.6,0.00,North,0,0.0,-999.0,100,0.00,,,-99.99,,2013-02-01 22:17:00,
2013-02-01 13:22:00,35.6,35.6,0.00,North,0,0.0,-999.0,100,0.00,,,-99.99,,2013-02-01 22:22:00,
2013-02-01 13:27:00,35.7,35.6,0.00,North,0,0.0,-999.0,100,0.00,,,-99.99,,2013-02-01 22:27:00,
2013-02-01 13:32:00,35.7,35.7,0.00,North,0,0.0,-999.0,100,0.00,,,-99.99,,2013-02-01 22:32:00,
2013-02-01 13:37:00,35.8,35.7,0.00,North,0,0.0,-999.0,100,0.00,,,-99.99,,2013-02-01 22:37:00,
2013-02-01 13:42:00,35.8,35.8,0.00,North,0,0.0,-999.0,100,0.00,,,-99.99,,2013-02-01 22:42:00,
2013-02-01 13:47:00,35.7,35.7,0.00,North,0,0.0,-999.0,100,0.00,,,-99.99,,2013-02-01 22:47:00,
2013-02-01 13:52:00,35.7,35.6,0.00,North,0,0.0,-999.0,100,0.00,,,-99.99,,2013-02-01 22:52:00,
2013-02-01 13:57:00,35.8,35.7,0.00,North,0,0.0,-999.0,100,0.00,,,-99.99,,2013-02-01 22:57:00,
2013-02-01 14:02:00,35.7,35.7,0.00,North,0,0.0,-999.0,100,0.00,,,-99.99,,2013-02-01 23:02:00,
2013-02-01 14:07:00,35.7,35.7,0.00,North,0,0.0,-999.0,100,0.00,,,-99.99,,2013-02-01 23:07:00,
2013-02-01 14:14:00,35.8,35.8,0.00,North,0,0.0,-999.0,100,0.00,,,-99.99,,2013-02-01 23:14:00,
2013-02-01 14:19:00,35.8,35.7,0.00,North,0,0.0,-999.0,100,0.00,,,-99.99,,2013-02-01 23:19:00,
2013-02-01 14:24:00,35.7,35.7,0.00,North,0,0.0,-999.0,100,0.00,,,-99.99,,2013-02-01 23:24:00,
2013-02-01 14:29:00,35.8,35.7,0.00,North,0,0.0,-999.0,100,0.00,,,-99.99,,2013-02-01 23:29:00,
2013-02-01 14:34:00,35.7,35.7,0.00,North,0,0.0,-999.0,100,0.00,,,-99.99,,2013-02-01 23:34:00,
2013-02-01 14:39:00,35.7,35.7,0.00,North,0,0.0,-999.0,100,0.00,,,-99.99,,2013-02-01 23:39:00,
2013-02-01 14:44:00,35.7,35.6,0.00,North,0,0.0,-999.0,100,0.00,,,-99.99,,2013-02-01 23:44:00,
2013-02-01 14:49:00,35.9,35.8,0.00,North,0,0.0,-999.0,100,0.00,,,-99.99,,2013-02-01 23:49:00,
2013-02-01 14:54:00,36.0,36.0,0.00,North,0,0.0,-999.0,100,0.00,,,-99.99,,2013-02-01 23:54:00,
2013-02-01 14:59:00,35.9,35.8,0.00,North,0,0.0,-999.0,100,0.00,,,-99.99,,2013-02-01 23:59:00,
2013-02-01 15:04:00,35.8,35.8,0.00,North,0,0.0,-999.0,100,0.00,,,-99.99,,2013-02-02 00:04:00,
2013-02-01 15:09:00,35.9,35.8,0.00,North,0,0.0,-999.0,100,0.00,,,-99.99,,2013-02-02 00:09:00,
2013-02-01 15:14:00,35.8,35.8,0.00,North,0,0.0,-999.0,100,0.00,,,-99.99,,2013-02-02 00:14:00,
2013-02-01 15:19:00,35.7,35.7,0.00,North,0,0.0,-999.0,100,0.00,,,-99.99,,2013-02-02 00:19:00,
2013-02-01 15:24:00,35.9,35.8,0.00,North,0,0.0,-999.0,100,0.00,,,-99.99,,2013-02-02 00:24:00,
2013-02-01 15:29:00,35.9,35.8,0.00,North,0,0.0,-999.0,100,0.00,,,-99.99,,2013-02-02 00:29:00,
2013-02-01 15:34:00,35.8,35.8,0.00,North,0,0.0,-999.0,100,0.00,,,-99.99,,2013-02-02 00:34:00,
2013-02-01 15:39:00,35.8,35.8,0.00,North,0,0.0,-999.0,100,0.00,,,-99.99,,2013-02-02 00:39:00,
2013-02-01 15:44:00,35.7,35.7,0.00,North,0,0.0,-999.0,100,0.00,,,-99.99,,2013-02-02 00:44:00,
2013-02-01 15:49:00,35.8,35.8,0.00,North,0,0.0,-999.0,100,0.00,,,-99.99,,2013-02-02 00:49:00,
2013-02-01 15:54:00,35.7,35.7,0.00,North,0,0.0,-999.0,100,0.00,,,-99.99,,2013-02-02 00:54:00,
2013-02-01 15:59:00,35.8,35.8,0.00,North,0,0.0,-999.0,100,0.00,,,-99.99,,2013-02-02 00:59:00,
2013-02-01 16:04:00,35.9,35.9,0.00,North,0,0.0,-999.0,100,0.00,,,-99.99,,2013-02-02 01:04:00,
2013-02-01 16:10:00,35.9,35.8,0.00,North,0,0.0,-999.0,100,0.00,,,-99.99,,2013-02-02 01:10:00,
2013-02-01 16:15:00,36.1,36.0,0.00,North,0,0.0,-999.0,100,0.00,,,-99.99,,2013-02-02 01:15:00,
2013-02-01 16:20:00,35.9,35.9,0.00,North,0,0.0,-999.0,100,0.00,,,-99.99,,2013-02-02 01:20:00,
2013-02-01 16:25:00,36.0,36.0,0.00,North,0,0.0,-999.0,100,0.00,,,-99.99,,2013-02-02 01:25:00,
2013-02-01 16:30:00,36.1,36.0,0.00,North,0,0.0,-999.0,100,0.00,,,-99.99,,2013-02-02 01:30:00,
2013-02-01 16:35:00,35.7,35.7,0.00,North,0,0.0,-999.0,100,0.00,,,-99.99,,2013-02-02 01:35:00,
2013-02-01 16:40:00,35.8,35.8,0.00,North,0,0.0,-999.0,100,0.00,,,-99.99,,2013-02-02 01:40:00,
2013-02-01 16:45:00,36.1,36.0,0.00,North,0,0.0,-999.0,100,0.00,,,-99.99,,2013-02-02 01:45:00,
2013-02-01 16:50:00,35.8,35.7,0.00,North,0,0.0,-999.0,100,0.00,,,-99.99,,2013-02-02 01:50:00,
2013-02-01 16:55:00,35.9,35.8,0.00,North,0,0.0,-999.0,100,0.00,,,-99.99,,2013-02-02 01:55:00,
2013-02-01 17:00:00,35.7,35.6,0.00,North,0,0.0,-999.0,100,0.00,,,-99.99,,2013-02-02 02:00:00,
2013-02-01 17:05:00,35.8,35.8,0.00,North,0,0.0,-999.0,100,0.00,,,-99.99,,2013-02-02 02:05:00,
2013-02-01 17:10:00,36.0,35.9,0.00,North,0,0.0,-999.0,100,0.00,,,-99.99,,2013-02-02 02:10:00,
2013-02-01 17:15:00,35.7,35.7,0.00,North,0,0.0,-999.0,100,0.00,,,-99.99,,2013-02-02 02:15:00,
2013-02-01 17:20:00,35.9,35.8,0.00,North,0,0.0,-999.0,100,0.00,,,-99.99,,2013-02-02 02:20:00,
2013-02-01 17:25:00,35.8,35.7,0.00,North,0,0.0,-999.0,100,0.00,,,-99.99,,2013-02-02 02:25:00,
2013-02-01 17:30:00,35.7,35.6,0.00,North,0,0.0,-999.0,100,0.00,,,-99.99,,2013-02-02 02:30:00,
2013-02-01 17:35:00,35.6,35.5,0.00,North,0,0.0,-999.0,100,0.00,,,-99.99,,2013-02-02 02:35:00,
2013-02-01 17:40:00,35.6,35.5,0.00,North,0,0.0,-999.0,100,0.00,,,-99.99,,2013-02-02 02:40:00,
2013-02-01 17:45:00,35.3,35.3,0.00,North,0,0.0,-999.0,100,0.00,,,-99.99,,2013-02-02 02:45:00,
2013-02-01 17:50:00,35.4,35.4,0.00,North,0,0.0,-999.0,100,0.00,,,-99.99,,2013-02-02 02:50:00,
2013-02-01 17:55:00,35.4,35.4,0.00,North,0,0.0,-999.0,100,0.00,,,-99.99,,2013-02-02 02:55:00,
2013-02-01 18:00:00,35.5,35.4,0.00,North,0,0.0,-999.0,100,0.00,,,-99.99,,2013-02-02 03:00:00,
2013-02-01 18:05:00,35.3,35.2,0.00,North,0,0.0,-999.0,100,0.00,,,-99.99,,2013-02-02 03:05:00,
2013-02-01 18:10:00,35.3,35.2,0.00,North,0,0.0,-999.0,100,0.00,,,-99.99,,2013-02-02 03:10:00,
2013-02-01 18:15:00,35.3,35.3,0.00,North,0,0.0,-999.0,100,0.00,,,-99.99,,2013-02-02 03:15:00,
2013-02-01 18:20:00,35.3,35.3,0.00,North,0,0.0,-999.0,100,0.00,,,-99.99,,2013-02-02 03:20:00,
2013-02-01 18:25:00,35.2,35.2,0.00,North,0,0.0,-999.0,100,0.00,,,-99.99,,2013-02-02 03:25:00,
2013-02-01 18:30:00,35.3,35.3,0.00,North,0,0.0,-999.0,100,0.00,,,-99.99,,2013-02-02 03:30:00,
2013-02-01 18:35:00,35.3,35.2,0.00,North,0,0.0,-999.0,100,0.00,,,-99.99,,2013-02-02 03:35:00,
2013-02-01 18:40:00,35.5,35.5,0.00,North,0,0.0,-999.0,100,0.00,,,-99.99,,2013-02-02 03:40:00,
2013-02-01 18:45:00,35.4,35.4,0.00,North,0,0.0,-999.0,100,0.00,,,-99.99,,2013-02-02 03:45:00,
2013-02-01 18:51:00,35.4,35.4,0.00,North,0,0.0,-999.0,100,0.00,,,-99.99,,2013-02-02 03:51:00,
2013-02-01 18:56:00,35.5,35.5,0.00,North,0,0.0,-999.0,100,0.00,,,-99.99,,2013-02-02 03:56:00,
2013-02-01 19:01:00,35.5,35.5,0.00,North,0,0.0,-999.0,100,0.00,,,-99.99,,2013-02-02 04:01:00,
2013-02-01 19:06:00,35.5,35.5,0.00,North,0,0.0,-999.0,100,0.00,,,-99.99,,2013-02-02 04:06:00,
2013-02-01 19:11:00,35.2,35.2,0.00,North,0,0.0,-999.0,100,0.00,,,-99.99,,2013-02-02 04:11:00,
2013-02-01 19:16:00,35.2,35.2,0.00,North,0,0.0,-999.0,100,0.00,,,-99.99,,2013-02-02 04:16:00,
2013-02-01 19:21:00,35.4,35.4,0.00,North,0,0.0,-999.0,100,0.00,,,-99.99,,2013-02-02 04:21:00,
2013-02-01 19:26:00,35.5,35.4,0.00,North,0,0.0,-999.0,100,0.00,,,-99.99,,2013-02-02 04:26:00,
2013-02-01 19:31:00,35.7,35.7,0.00,North,0,0.0,-999.0,100,0.00,,,-99.99,,2013-02-02 04:31:00,
2013-02-01 19:36:00,35.5,35.5,0.00,North,0,0.0,-999.0,100,0.00,,,-99.99,,2013-02-02 04:36:00,
2013-02-01 19:41:00,35.5,35.5,0.00,North,0,0.0,-999.0,100,0.00,,,-99.99,,2013-02-02 04:41:00,
2013-02-01 19:46:00,35.4,35.4,0.00,North,0,0.0,-999.0,100,0.00,,,-99.99,,2013-02-02 04:46:00,
2013-02-01 19:51:00,35.3,35.3,0.00,North,0,0.0,-999.0,100,0.00,,,-99.99,,2013-02-02 04:51:00,
2013-02-01 19:56:00,35.2,35.2,0.00,North,0,0.0,-999.0,100,0.00,,,-99.99,,2013-02-02 04:56:00,
2013-02-01 20:00:00,35.3,35.2,0.00,North,0,0.0,-999.0,100,0.00,,,-99.99,,2013-02-02 05:00:00,
2013-02-01 20:01:00,35.0,35.0,0.00,North,0,0.0,-999.0,100,0.00,,,-99.99,,2013-02-02 05:01:00,
2013-02-01 20:03:00,35.2,35.1,0.00,North,0,0.0,-999.0,100,0.00,,,-99.99,,2013-02-02 05:03:00,
2013-02-01 20:04:00,35.2,35.2,0.00,North,0,0.0,-999.0,100,0.00,,,-99.99,,2013-02-02 05:04:00,
2013-02-01 20:09:00,35.3,35.3,0.00,North,0,0.0,-999.0,100,0.00,,,-99.99,,2013-02-02 05:09:00,
2013-02-01 20:14:00,35.1,35.1,0.00,North,0,0.0,-999.0,100,0.00,,,-99.99,,2013-02-02 05:14:00,
2013-02-01 20:19:00,35.2,35.1,0.00,North,0,0.0,-999.0,100,0.00,,,-99.99,,2013-02-02 05:19:00,
2013-02-01 20:24:00,35.2,35.1,0.00,North,0,0.0,-999.0,100,0.00,,,-99.99,,2013-02-02 05:24:00,
2013-02-01 20:29:00,35.2,35.1,0.00,North,0,0.0,-999.0,100,0.00,,,-99.99,,2013-02-02 05:29:00,
2013-02-01 20:34:00,35.2,35.1,0.00,North,0,0.0,-999.0,100,0.00,,,-99.99,,2013-02-02 05:34:00,
2013-02-01 20:39:00,35.2,35.1,0.00,North,0,0.0,-999.0,100,0.00,,,-99.99,,2013-02-02 05:39:00,
2013-02-01 20:44:00,35.2,35.2,0.00,North,0,0.0,-999.0,100,0.00,,,-99.99,,2013-02-02 05:44:00,
2013-02-01 20:49:00,35.2,35.1,0.00,North,0,0.0,-999.0,100,0.00,,,-99.99,,2013-02-02 05:49:00,
2013-02-01 20:54:00,35.3,35.3,0.00,North,0,0.0,-999.0,100,0.00,,,-99.99,,2013-02-02 05:54:00,
2013-02-01 20:59:00,35.2,35.2,0.00,North,0,0.0,-999.0,100,0.00,,,-99.99,,2013-02-02 05:59:00,
2013-02-01 21:04:00,35.0,35.0,0.00,North,0,0.0,-999.0,100,0.00,,,-99.99,,2013-02-02 06:04:00,
2013-02-01 21:09:00,35.0,34.9,0.00,North,0,0.0,-999.0,100,0.00,,,-99.99,,2013-02-02 06:09:00,
2013-02-01 21:14:00,34.9,34.9,0.00,North,0,0.0,-999.0,100,0.00,,,-99.99,,2013-02-02 06:14:00,
2013-02-01 21:19:00,35.0,34.9,0.00,North,0,0.0,-999.0,100,0.00,,,-99.99,,2013-02-02 06:19:00,
2013-02-01 21:24:00,35.0,35.0,0.00,North,0,0.0,-999.0,100,0.00,,,-99.99,,2013-02-02 06:24:00,
2013-02-01 21:29:00,34.9,34.9,0.00,North,0,0.0,-999.0,100,0.00,,,-99.99,,2013-02-02 06:29:00,
2013-02-01 21:34:00,34.9,34.9,0.00,North,0,0.0,-999.0,100,0.00,,,-99.99,,2013-02-02 06:34:00,
2013-02-01 21:39:00,35.0,35.0,0.00,North,0,0.0,-999.0,100,0.00,,,-99.99,,2013-02-02 06:39:00,
2013-02-01 21:45:00,35.1,35.1,0.00,North,0,0.0,-999.0,100,0.00,,,-99.99,,2013-02-02 06:45:00,
2013-02-01 21:50:00,35.1,35.1,0.00,North,0,0.0,-999.0,100,0.00,,,-99.99,,2013-02-02 06:50:00,
2013-02-01 21:55:00,35.2,35.1,0.00,North,0,0.0,-999.0,100,0.00,,,-99.99,,2013-02-02 06:55:00,
2013-02-01 22:00:00,35.1,35.1,0.00,North,0,0.0,-999.0,100,0.00,,,-99.99,,2013-02-02 07:00:00,
2013-02-01 22:05:00,35.0,34.9,0.00,North,0,0.0,-999.0,100,0.00,,,-99.99,,2013-02-02 07:05:00,
2013-02-01 22:10:00,35.1,35.1,0.00,North,0,0.0,-999.0,100,0.00,,,-99.99,,2013-02-02 07:10:00,
2013-02-01 22:15:00,35.0,34.9,0.00,North,0,0.0,-999.0,100,0.00,,,-99.99,,2013-02-02 07:15:00,
2013-02-01 22:20:00,35.0,34.9,0.00,North,0,0.0,-999.0,100,0.00,,,-99.99,,2013-02-02 07:20:00,
2013-02-01 22:25:00,34.9,34.9,0.00,North,0,0.0,-999.0,100,0.00,,,-99.99,,2013-02-02 07:25:00,
2013-02-01 22:30:00,34.9,34.9,0.00,North,0,0.0,-999.0,100,0.00,,,-99.99,,2013-02-02 07:30:00,
2013-02-01 22:35:00,35.0,35.0,0.00,North,0,0.0,-999.0,100,0.00,,,-99.99,,2013-02-02 07:35:00,
2013-02-01 22:40:00,35.0,34.9,0.00,North,0,0.0,-999.0,100,0.00,,,-99.99,,2013-02-02 07:40:00,
2013-02-01 22:45:00,34.8,34.8,0.00,North,0,0.0,-999.0,100,0.00,,,-99.99,,2013-02-02 07:45:00,
2013-02-01 22:50:00,35.1,35.1,0.00,North,0,0.0,-999.0,100,0.00,,,-99.99,,2013-02-02 07:50:00,
2013-02-01 22:55:00,35.0,35.0,0.00,North,0,0.0,-999.0,100,0.00,,,-99.99,,2013-02-02 07:55:00,
2013-02-01 23:00:00,35.0,35.0,0.00,North,0,0.0,-999.0,100,0.00,,,-99.99,,2013-02-02 08:00:00,
2013-02-01 23:06:00,35.1,35.1,0.00,North,0,0.0,-999.0,100,0.00,,,-99.99,,2013-02-02 08:06:00,
2013-02-01 23:11:00,34.9,34.8,0.00,North,0,0.0,-999.0,100,0.00,,,-99.99,,2013-02-02 08:11:00,
2013-02-01 23:16:00,35.1,35.1,0.00,North,0,0.0,-999.0,100,0.00,,,-99.99,,2013-02-02 08:16:00,
2013-02-01 23:21:00,35.0,35.0,0.00,North,0,0.0,-999.0,100,0.00,,,-99.99,,2013-02-02 08:21:00,
2013-02-01 23:26:00,35.0,35.0,0.00,North,0,0.0,-999.0,100,0.00,,,-99.99,,2013-02-02 08:26:00,
2013-02-01 23:31:00,35.3,35.2,0.00,North,0,0.0,-999.0,100,0.00,,,-99.99,,2013-02-02 08:31:00,
2013-02-01 23:36:00,35.1,35.1,0.00,North,0,0.0,-999.0,100,0.00,,,-99.99,,2013-02-02 08:36:00,
2013-02-01 23:41:00,35.2,35.1,0.00,North,0,0.0,-999.0,100,0.00,,,-99.99,,2013-02-02 08:41:00,
2013-02-01 23:46:00,35.1,35.1,0.00,North,0,0.0,-999.0,100,0.00,,,-99.99,,2013-02-02 08:46:00,
2013-02-01 23:51:00,35.2,35.2,0.00,North,0,0.0,-999.0,100,0.00,,,-99.99,,2013-02-02 08:51:00,
2013-02-01 23:56:00,35.3,35.3,0.00,North,0,0.0,-999.0,100,0.00,,,-99.99,,2013-02-02 08:56:00,